Terminal Aerodrome Forecast
Issued by NWS

Home | Current Version | Previous Version | Text Only | Print | Product List | Glossary On
Versions: 1 2 3 4 5 6 7 8 9 10 11 12 13 14 15 16 17 18 19 20
000
FTUS44 KBMX 030520
TAFMGM
TAF
KMGM 030520Z 0306/0406 22007KT P6SM SCT025 BKN250
     FM031800 25010KT P6SM OVC250
     FM040000 24004KT P6SM OVC250=

USA.gov is the U.S. government's official web portal to all federal, state and local government web resources and services.